Time;durP1;ratioP1;P1;durP2;ratioP2;P2;SDS_P1;SDS_P2;PMS_P1;PMS_P2;Temp;Humidity;BMP_temperature;BMP_pressure;BME280_temperature;BME280_humidity;BME280_pressure;Samples;Min_cycle;Max_cycle;Signal;HPM_P1;HPM_P2
2022/09/23 00:02:15;;;;;;;9.40;6.03;;;;;;;;;;5069959;28;20427;-79
2022/09/23 00:04:41;;;;;;;12.52;6.25;;;;;;;;;;5070189;28;20021;-78
2022/09/23 00:07:07;;;;;;;8.88;6.20;;;;;;;;;;5073168;28;20162;-79
2022/09/23 00:09:34;;;;;;;13.02;6.28;;;;;;;;;;5073927;28;20055;-80
2022/09/23 00:12:01;;;;;;;9.70;6.75;;;;;;;;;;5074311;28;20029;-79
2022/09/23 00:14:27;;;;;;;8.70;6.05;;;;;;;;;;5073077;28;20071;-79
2022/09/23 00:16:54;;;;;;;8.25;5.32;;;;;;;;;;5072852;28;20036;-78
2022/09/23 00:19:23;;;;;;;9.20;6.18;;;;;;;;;;5071789;28;20408;-79
2022/09/23 00:21:49;;;;;;;8.27;5.80;;;;;;;;;;5071664;28;20128;-79
2022/09/23 00:24:16;;;;;;;11.48;6.82;;;;;;;;;;5070755;28;20159;-79
2022/09/23 00:26:45;;;;;;;9.63;6.00;;;;;;;;;;5070462;28;20110;-79
2022/09/23 00:29:17;;;;;;;11.23;6.90;;;;;;;;;;5070933;28;20024;-79
2022/09/23 00:31:49;;;;;;;9.38;6.57;;;;;;;;;;5071459;28;20021;-78
2022/09/23 00:34:17;;;;;;;9.75;5.97;;;;;;;;;;5068620;28;20469;-80
2022/09/23 00:36:43;;;;;;;8.40;5.88;;;;;;;;;;5069509;28;20116;-79
2022/09/23 00:39:09;;;;;;;8.40;5.50;;;;;;;;;;5069218;28;20040;-79
2022/09/23 00:41:47;;;;;;;9.60;6.97;;;;;;;;;;5069931;28;20016;-79
2022/09/23 00:44:35;;;;;;;11.40;6.55;;;;;;;;;;5073979;28;20159;-78
2022/09/23 00:47:28;;;;;;;;;;;;;;;;;;;;;
2022/09/23 00:50:04;;;;;;;8.90;5.82;;;;;;;;;;5076375;28;20032;-79
2022/09/23 00:52:31;;;;;;;8.15;5.40;;;;;;;;;;5055960;28;20029;-79
2022/09/23 00:54:59;;;;;;;10.35;6.45;;;;;;;;;;5059682;28;20025;-80
2022/09/23 00:57:26;;;;;;;9.48;6.40;;;;;;;;;;5075848;28;20036;-78
2022/09/23 00:59:52;;;;;;;10.20;6.70;;;;;;;;;;5075244;28;20028;-79
2022/09/23 01:02:20;;;;;;;11.05;6.88;;;;;;;;;;5076927;28;20028;-79
2022/09/23 01:04:49;;;;;;;11.70;7.57;;;;;;;;;;5076295;28;20102;-78
2022/09/23 01:07:15;;;;;;;10.02;6.75;;;;;;;;;;5076118;28;20025;-80
2022/09/23 01:09:45;;;;;;;9.80;5.80;;;;;;;;;;5075581;28;20032;-80
2022/09/23 01:12:11;;;;;;;10.57;6.57;;;;;;;;;;5077228;28;20060;-78
2022/09/23 01:14:56;;;;;;;9.25;6.65;;;;;;;;;;5077399;28;20021;-78
2022/09/23 01:17:22;;;;;;;10.13;6.63;;;;;;;;;;5075201;28;20521;-78
2022/09/23 01:20:07;;;;;;;10.15;6.50;;;;;;;;;;5075387;28;20036;-78
2022/09/23 01:22:49;;;;;;;9.18;6.25;;;;;;;;;;5075399;28;20478;-78
2022/09/23 01:25:15;;;;;;;8.65;5.72;;;;;;;;;;5075831;28;20036;-79
2022/09/23 01:27:56;;;;;;;9.85;6.45;;;;;;;;;;5075602;28;20025;-78
2022/09/23 01:30:49;;;;;;;10.40;6.78;;;;;;;;;;5075857;28;20592;-78
2022/09/23 01:33:19;;;;;;;9.57;6.90;;;;;;;;;;5077244;28;20067;-79
2022/09/23 01:36:09;;;;;;;7.75;4.50;;;;;;;;;;5075789;28;20367;-78
2022/09/23 01:38:38;;;;;;;8.40;5.68;;;;;;;;;;5075066;28;20040;-78
2022/09/23 01:41:19;;;;;;;10.48;7.07;;;;;;;;;;5074868;28;20107;-78
2022/09/23 01:44:05;;;;;;;11.75;6.85;;;;;;;;;;5074421;28;20063;-79
2022/09/23 01:46:35;;;;;;;11.20;7.03;;;;;;;;;;5074416;28;20063;-79
2022/09/23 01:49:07;;;;;;;10.77;7.00;;;;;;;;;;5074108;28;20067;-79
2022/09/23 01:51:37;;;;;;;9.52;6.13;;;;;;;;;;5074014;28;20064;-79
2022/09/23 01:54:06;;;;;;;9.33;6.63;;;;;;;;;;5073038;28;20060;-79
2022/09/23 01:57:02;;;;;;;10.40;7.03;;;;;;;;;;5070340;28;20320;-78
2022/09/23 01:59:31;;;;;;;8.68;6.18;;;;;;;;;;5072510;28;20734;-79
2022/09/23 02:02:15;;;;;;;9.85;7.15;;;;;;;;;;5070046;28;20024;-79
2022/09/23 02:04:46;;;;;;;11.60;6.88;;;;;;;;;;5070292;28;20399;-79
2022/09/23 02:07:19;;;;;;;10.32;7.03;;;;;;;;;;5071435;28;20125;-78
2022/09/23 02:09:47;;;;;;;12.05;7.30;;;;;;;;;;5071052;28;20380;-79
2022/09/23 02:12:16;;;;;;;10.60;7.10;;;;;;;;;;5070405;28;20107;-79
2022/09/23 02:14:43;;;;;;;9.93;7.05;;;;;;;;;;5071037;28;20484;-79
2022/09/23 02:17:11;;;;;;;19.48;6.78;;;;;;;;;;5070304;28;20033;-78
2022/09/23 02:19:43;;;;;;;9.45;6.68;;;;;;;;;;5070635;28;20387;-78
2022/09/23 02:22:14;;;;;;;10.88;7.72;;;;;;;;;;5070393;28;20106;-79
2022/09/23 02:24:40;;;;;;;11.63;8.00;;;;;;;;;;5068913;28;20475;-79
2022/09/23 02:27:22;;;;;;;11.43;7.50;;;;;;;;;;5071059;28;20027;-79
2022/09/23 02:29:51;;;;;;;10.90;7.78;;;;;;;;;;5070825;28;20384;-77
2022/09/23 02:32:31;;;;;;;12.80;7.07;;;;;;;;;;5071142;28;20029;-78
2022/09/23 02:34:57;;;;;;;11.93;8.18;;;;;;;;;;5071683;28;20025;-79
2022/09/23 02:37:26;;;;;;;10.68;7.20;;;;;;;;;;5070676;28;20033;-79
2022/09/23 02:40:08;;;;;;;14.23;8.05;;;;;;;;;;5071232;28;20556;-78
2022/09/23 02:42:43;;;;;;;10.95;8.10;;;;;;;;;;5071881;28;20458;-79
2022/09/23 02:45:10;;;;;;;10.98;8.00;;;;;;;;;;5070401;28;20020;-78
2022/09/23 02:47:38;;;;;;;12.48;7.50;;;;;;;;;;5052050;28;20029;-78
2022/09/23 02:50:06;;;;;;;9.05;6.32;;;;;;;;;;5065467;28;20025;-78
2022/09/23 02:52:32;;;;;;;10.77;7.13;;;;;;;;;;5071037;28;20028;-78
2022/09/23 02:54:59;;;;;;;10.35;7.32;;;;;;;;;;5071138;28;20063;-79
2022/09/23 02:57:26;;;;;;;9.13;7.18;;;;;;;;;;5070895;28;20025;-79
2022/09/23 02:59:52;;;;;;;9.88;7.30;;;;;;;;;;5071234;28;20032;-79
2022/09/23 03:02:20;;;;;;;12.35;7.85;;;;;;;;;;5070616;28;20078;-79
2022/09/23 03:05:05;;;;;;;11.15;7.57;;;;;;;;;;5073065;28;20573;-79
2022/09/23 03:07:46;;;;;;;10.63;6.82;;;;;;;;;;5071013;28;20111;-80
2022/09/23 03:10:31;;;;;;;11.48;6.97;;;;;;;;;;5070422;28;20035;-80
2022/09/23 03:13:12;;;;;;;12.57;7.13;;;;;;;;;;5070985;28;20032;-80
2022/09/23 03:15:39;;;;;;;10.98;6.75;;;;;;;;;;5071304;28;20048;-79
2022/09/23 03:18:11;;;;;;;11.32;7.63;;;;;;;;;;5070714;28;20441;-79
2022/09/23 03:20:37;;;;;;;12.45;7.18;;;;;;;;;;5070790;28;20020;-79
2022/09/23 03:23:05;;;;;;;13.02;7.50;;;;;;;;;;5068829;28;20057;-78
2022/09/23 03:25:34;;;;;;;10.63;7.43;;;;;;;;;;5069611;28;20103;-79
2022/09/23 03:28:03;;;;;;;10.77;7.55;;;;;;;;;;5070135;28;20081;-79
2022/09/23 03:30:29;;;;;;;13.02;7.88;;;;;;;;;;5069934;28;20013;-79
2022/09/23 03:32:59;;;;;;;9.60;7.07;;;;;;;;;;5070574;28;20058;-80
2022/09/23 03:35:27;;;;;;;11.80;7.50;;;;;;;;;;5070608;28;20115;-79
2022/09/23 03:37:56;;;;;;;10.45;6.93;;;;;;;;;;5069462;28;20297;-78
2022/09/23 03:40:33;;;;;;;11.27;7.47;;;;;;;;;;5069795;28;20060;-78
2022/09/23 03:43:00;;;;;;;9.55;6.88;;;;;;;;;;5070143;28;20025;-80
2022/09/23 03:45:29;;;;;;;12.52;7.57;;;;;;;;;;5070159;28;20035;-79
2022/09/23 03:47:55;;;;;;;14.77;7.68;;;;;;;;;;5070356;28;20035;-80
2022/09/23 03:50:21;;;;;;;11.68;8.15;;;;;;;;;;5069794;28;20115;-80
2022/09/23 03:52:49;;;;;;;10.43;7.68;;;;;;;;;;5069765;28;20052;-79
2022/09/23 03:55:16;;;;;;;10.63;7.47;;;;;;;;;;5068978;28;20025;-79
2022/09/23 03:57:42;;;;;;;10.60;6.43;;;;;;;;;;5068615;28;20582;-79
2022/09/23 04:00:09;;;;;;;10.05;7.35;;;;;;;;;;5069452;28;20024;-79
2022/09/23 04:02:35;;;;;;;12.68;8.23;;;;;;;;;;5069472;28;20111;-78
2022/09/23 04:05:01;;;;;;;12.23;8.48;;;;;;;;;;5067150;28;20484;-79
2022/09/23 04:07:27;;;;;;;9.98;7.30;;;;;;;;;;5065817;28;20081;-79
2022/09/23 04:09:53;;;;;;;10.27;7.60;;;;;;;;;;5050428;28;20029;-79
2022/09/23 04:12:19;;;;;;;13.77;8.30;;;;;;;;;;5057088;28;20442;-80
2022/09/23 04:14:45;;;;;;;11.77;7.65;;;;;;;;;;5067033;28;20021;-78
2022/09/23 04:17:12;;;;;;;10.68;7.22;;;;;;;;;;5065177;28;20147;-78
2022/09/23 04:19:39;;;;;;;11.38;7.85;;;;;;;;;;5066665;28;20097;-79
2022/09/23 04:22:07;;;;;;;10.38;6.40;;;;;;;;;;5068963;28;20499;-79
2022/09/23 04:24:33;;;;;;;12.75;9.23;;;;;;;;;;5060077;28;20028;-79
2022/09/23 04:26:59;;;;;;;12.52;8.38;;;;;;;;;;5069358;28;20031;-79
2022/09/23 04:29:25;;;;;;;10.25;8.13;;;;;;;;;;5067640;28;20487;-79
2022/09/23 04:31:52;;;;;;;10.52;7.72;;;;;;;;;;5068803;28;20138;-79
2022/09/23 04:34:18;;;;;;;12.95;7.80;;;;;;;;;;5069307;28;20028;-79
2022/09/23 04:36:45;;;;;;;10.50;7.55;;;;;;;;;;5068525;28;20064;-78
2022/09/23 04:39:11;;;;;;;10.68;7.43;;;;;;;;;;5067677;28;20723;-78
2022/09/23 04:41:37;;;;;;;13.48;7.50;;;;;;;;;;5069650;28;20103;-79
2022/09/23 04:44:03;;;;;;;13.50;8.32;;;;;;;;;;5069449;28;20043;-79
2022/09/23 04:46:30;;;;;;;12.90;7.93;;;;;;;;;;5070116;28;20021;-80
2022/09/23 04:48:56;;;;;;;7.82;5.60;;;;;;;;;;5068799;28;20077;-80
2022/09/23 04:51:23;;;;;;;10.98;7.60;;;;;;;;;;5069126;28;20029;-80
2022/09/23 04:53:50;;;;;;;11.70;7.78;;;;;;;;;;5068558;28;20055;-80
2022/09/23 04:56:17;;;;;;;11.32;8.02;;;;;;;;;;5068248;28;20098;-80
2022/09/23 04:58:44;;;;;;;9.70;6.93;;;;;;;;;;5069143;28;20036;-79
2022/09/23 05:01:27;;;;;;;10.57;7.72;;;;;;;;;;5069658;28;20017;-78
2022/09/23 05:03:54;;;;;;;11.13;7.95;;;;;;;;;;5069141;28;20035;-77
2022/09/23 05:06:20;;;;;;;10.40;7.85;;;;;;;;;;5069945;28;20107;-78
2022/09/23 05:08:48;;;;;;;10.25;7.00;;;;;;;;;;5068758;28;20016;-77
2022/09/23 05:11:15;;;;;;;12.77;8.07;;;;;;;;;;5069524;28;20025;-78
2022/09/23 05:13:41;;;;;;;8.45;5.65;;;;;;;;;;5068601;28;20108;-78
2022/09/23 05:16:09;;;;;;;7.30;3.33;;;;;;;;;;5069808;28;20609;-78
2022/09/23 05:18:41;;;;;;;10.23;6.55;;;;;;;;;;5068910;28;20508;-79
2022/09/23 05:21:07;;;;;;;12.13;7.35;;;;;;;;;;5068702;28;20028;-79
2022/09/23 05:23:33;;;;;;;11.57;7.18;;;;;;;;;;5069342;28;20098;-79
2022/09/23 05:26:07;;;;;;;10.68;6.47;;;;;;;;;;5069663;28;20050;-79
2022/09/23 05:28:33;;;;;;;10.52;7.28;;;;;;;;;;5063998;28;20412;-79
2022/09/23 05:31:03;;;;;;;10.27;7.63;;;;;;;;;;5068791;28;20082;-79
2022/09/23 05:33:30;;;;;;;12.43;7.30;;;;;;;;;;5060381;28;20052;-78
2022/09/23 05:35:56;;;;;;;11.93;7.97;;;;;;;;;;5068768;28;20487;-77
2022/09/23 05:38:22;;;;;;;13.02;8.25;;;;;;;;;;5064198;28;20064;-77
2022/09/23 05:40:54;;;;;;;12.50;7.45;;;;;;;;;;5063163;28;20469;-77
2022/09/23 05:43:20;;;;;;;10.73;7.85;;;;;;;;;;5064718;28;20044;-78
2022/09/23 05:45:47;;;;;;;9.60;7.45;;;;;;;;;;5065903;28;20425;-78
2022/09/23 05:48:12;;;;;;;9.65;6.95;;;;;;;;;;5066269;28;20032;-77
2022/09/23 05:50:39;;;;;;;10.93;7.50;;;;;;;;;;5067027;28;20432;-78
2022/09/23 05:53:05;;;;;;;13.55;7.53;;;;;;;;;;5062461;28;20448;-79
2022/09/23 05:55:31;;;;;;;13.68;7.05;;;;;;;;;;5064929;28;20029;-79
2022/09/23 05:57:58;;;;;;;10.05;7.15;;;;;;;;;;5061509;28;20043;-78
2022/09/23 06:00:24;;;;;;;10.60;7.40;;;;;;;;;;5064631;28;20024;-77
2022/09/23 06:02:50;;;;;;;10.20;7.72;;;;;;;;;;5064247;28;20029;-78
2022/09/23 06:05:16;;;;;;;8.57;6.28;;;;;;;;;;5059347;28;20054;-79
2022/09/23 06:07:43;;;;;;;9.88;7.22;;;;;;;;;;5071708;28;20074;-78
2022/09/23 06:10:09;;;;;;;9.93;7.50;;;;;;;;;;5072197;28;20028;-78
2022/09/23 06:12:35;;;;;;;12.48;7.38;;;;;;;;;;5072815;28;20033;-78
2022/09/23 06:15:01;;;;;;;9.68;6.30;;;;;;;;;;5071596;28;20021;-78
2022/09/23 06:17:27;;;;;;;10.00;5.57;;;;;;;;;;5072041;28;20029;-78
2022/09/23 06:19:53;;;;;;;9.20;6.10;;;;;;;;;;5072050;28;20071;-78
2022/09/23 06:22:23;;;;;;;10.88;6.13;;;;;;;;;;5070657;28;20122;-79
2022/09/23 06:24:49;;;;;;;10.18;6.38;;;;;;;;;;5072295;28;20032;-79
2022/09/23 06:27:15;;;;;;;11.35;7.07;;;;;;;;;;5067291;28;20570;-77
2022/09/23 06:29:41;;;;;;;11.55;6.80;;;;;;;;;;5072302;28;20052;-76
2022/09/23 06:32:07;;;;;;;10.32;6.93;;;;;;;;;;5070989;28;20024;-77
2022/09/23 06:34:33;;;;;;;10.45;7.40;;;;;;;;;;5062530;28;20091;-77
2022/09/23 06:36:59;;;;;;;9.30;6.82;;;;;;;;;;5063748;28;20033;-78
2022/09/23 06:39:25;;;;;;;9.60;6.85;;;;;;;;;;5062098;28;20115;-79
2022/09/23 06:41:51;;;;;;;10.57;6.45;;;;;;;;;;5063625;28;20103;-78
2022/09/23 06:44:17;;;;;;;10.85;6.97;;;;;;;;;;5063097;28;20433;-78
2022/09/23 06:46:44;;;;;;;10.70;6.22;;;;;;;;;;5059629;28;20039;-77
2022/09/23 06:49:11;;;;;;;10.95;5.53;;;;;;;;;;5066671;28;20149;-79
2022/09/23 06:51:36;;;;;;;8.63;5.28;;;;;;;;;;5062097;28;20021;-76
2022/09/23 06:54:03;;;;;;;9.70;5.60;;;;;;;;;;5066175;28;20551;-77
2022/09/23 06:56:29;;;;;;;8.95;5.80;;;;;;;;;;5060706;28;20021;-78
2022/09/23 06:58:55;;;;;;;7.38;5.05;;;;;;;;;;5066399;28;20504;-75
2022/09/23 07:01:22;;;;;;;9.70;6.03;;;;;;;;;;5059913;28;20398;-77
2022/09/23 07:03:48;;;;;;;8.65;6.05;;;;;;;;;;5064498;28;20083;-77
2022/09/23 07:06:14;;;;;;;8.27;5.32;;;;;;;;;;5060342;28;20475;-76
2022/09/23 07:08:42;;;;;;;7.93;5.45;;;;;;;;;;5061521;28;20032;-78
2022/09/23 07:11:11;;;;;;;6.03;3.53;;;;;;;;;;5070568;28;20029;-77
2022/09/23 07:13:37;;;;;;;5.95;3.72;;;;;;;;;;5069661;28;20502;-78
2022/09/23 07:16:03;;;;;;;6.43;2.30;;;;;;;;;;5069353;28;20040;-78
2022/09/23 07:18:30;;;;;;;5.85;2.83;;;;;;;;;;5069669;28;20024;-78
2022/09/23 07:20:58;;;;;;;5.82;3.53;;;;;;;;;;5067845;28;20052;-78
2022/09/23 07:23:25;;;;;;;10.30;6.57;;;;;;;;;;5065387;28;20031;-77
2022/09/23 07:25:51;;;;;;;7.90;5.50;;;;;;;;;;5064102;28;20025;-77
2022/09/23 07:28:20;;;;;;;8.98;5.50;;;;;;;;;;5060591;28;20401;-78
2022/09/23 07:30:46;;;;;;;9.48;6.32;;;;;;;;;;5059115;28;20020;-77
2022/09/23 07:33:12;;;;;;;10.20;6.15;;;;;;;;;;5069151;28;20055;-77
2022/09/23 07:35:39;;;;;;;13.48;6.68;;;;;;;;;;5069574;28;20024;-77
2022/09/23 07:38:06;;;;;;;11.05;5.40;;;;;;;;;;5068979;28;20031;-77
2022/09/23 07:40:32;;;;;;;11.48;7.03;;;;;;;;;;5068735;28;20025;-77
2022/09/23 07:42:58;;;;;;;8.57;5.63;;;;;;;;;;5069480;28;20035;-77
2022/09/23 07:45:26;;;;;;;11.10;6.65;;;;;;;;;;5068541;28;20059;-78
2022/09/23 07:47:54;;;;;;;19.77;4.45;;;;;;;;;;5069416;28;20049;-77
2022/09/23 07:50:21;;;;;;;14.55;3.25;;;;;;;;;;5068516;28;20042;-77
2022/09/23 07:52:48;;;;;;;69.38;8.95;;;;;;;;;;5066993;28;20718;-77
2022/09/23 07:55:15;;;;;;;27.73;5.80;;;;;;;;;;5069138;28;20025;-77
2022/09/23 07:57:44;;;;;;;13.25;4.13;;;;;;;;;;5068441;28;20404;-76
2022/09/23 08:00:12;;;;;;;14.73;5.20;;;;;;;;;;5069469;28;20090;-76
2022/09/23 08:02:38;;;;;;;9.43;3.45;;;;;;;;;;5068769;28;20023;-76
2022/09/23 08:05:05;;;;;;;7.50;3.90;;;;;;;;;;5068834;28;20044;-77
2022/09/23 08:07:33;;;;;;;8.85;3.78;;;;;;;;;;5069011;28;20029;-77
2022/09/23 08:09:59;;;;;;;7.18;3.97;;;;;;;;;;5061845;28;20105;-77
2022/09/23 08:12:26;;;;;;;5.63;3.33;;;;;;;;;;5068711;28;20024;-77
2022/09/23 08:14:52;;;;;;;15.02;5.50;;;;;;;;;;5068762;28;20021;-78
2022/09/23 08:17:18;;;;;;;12.25;5.20;;;;;;;;;;5068851;28;20400;-77
2022/09/23 08:19:44;;;;;;;8.75;4.18;;;;;;;;;;5068636;28;20491;-77
2022/09/23 08:22:12;;;;;;;12.23;4.53;;;;;;;;;;5066797;28;20048;-77
2022/09/23 08:24:38;;;;;;;8.05;4.00;;;;;;;;;;5068865;28;20052;-78
2022/09/23 08:27:04;;;;;;;12.60;4.55;;;;;;;;;;5067886;28;20117;-77
2022/09/23 08:29:31;;;;;;;9.15;5.43;;;;;;;;;;5068822;28;20153;-77
2022/09/23 08:31:57;;;;;;;11.73;3.88;;;;;;;;;;5068221;28;20479;-76
2022/09/23 08:34:26;;;;;;;8.02;3.97;;;;;;;;;;5068177;28;20109;-76
2022/09/23 08:36:52;;;;;;;31.13;6.20;;;;;;;;;;5067568;28;20029;-76
2022/09/23 08:39:19;;;;;;;9.00;4.82;;;;;;;;;;5067682;28;20040;-77
2022/09/23 08:41:53;;;;;;;9.73;6.15;;;;;;;;;;5066609;28;20171;-76
2022/09/23 08:44:29;;;;;;;9.95;4.28;;;;;;;;;;5067901;28;20028;-78
2022/09/23 08:47:04;;;;;;;20.30;6.68;;;;;;;;;;5068006;28;20070;-78
2022/09/23 08:49:32;;;;;;;10.85;3.03;;;;;;;;;;5068083;28;20044;-76
2022/09/23 08:51:59;;;;;;;7.13;2.30;;;;;;;;;;5068627;28;20115;-77
2022/09/23 08:54:29;;;;;;;4.57;2.33;;;;;;;;;;5067105;28;20025;-77
2022/09/23 08:56:57;;;;;;;7.72;2.80;;;;;;;;;;5067186;28;20509;-77
2022/09/23 08:59:28;;;;;;;9.77;2.90;;;;;;;;;;5068234;28;20036;-77
2022/09/23 09:02:14;;;;;;;7.22;2.75;;;;;;;;;;5067924;28;20032;-77
2022/09/23 09:04:43;;;;;;;10.95;2.88;;;;;;;;;;5070349;28;20029;-77
2022/09/23 09:07:11;;;;;;;9.20;3.03;;;;;;;;;;5072788;28;20078;-77
2022/09/23 09:09:47;;;;;;;7.38;2.78;;;;;;;;;;5072565;28;20376;-77
2022/09/23 09:12:18;;;;;;;6.25;2.58;;;;;;;;;;5072102;28;20036;-78
2022/09/23 09:15:06;;;;;;;9.93;3.10;;;;;;;;;;5072878;28;20020;-77
2022/09/23 09:17:37;;;;;;;8.05;2.67;;;;;;;;;;5071253;28;20052;-79
2022/09/23 09:20:12;;;;;;;11.93;3.55;;;;;;;;;;5071758;28;20044;-76
2022/09/23 09:22:38;;;;;;;11.05;3.25;;;;;;;;;;5071676;28;20071;-76
2022/09/23 09:25:24;;;;;;;11.57;3.17;;;;;;;;;;5070389;28;20391;-76
2022/09/23 09:27:51;;;;;;;12.00;4.22;;;;;;;;;;5072374;28;20032;-77
2022/09/23 09:30:18;;;;;;;10.57;5.20;;;;;;;;;;5071476;28;20029;-77
2022/09/23 09:32:47;;;;;;;8.73;5.20;;;;;;;;;;5069760;28;20048;-78
2022/09/23 09:35:33;;;;;;;9.73;6.05;;;;;;;;;;5070848;28;20035;-77
2022/09/23 09:38:00;;;;;;;7.22;4.82;;;;;;;;;;5071623;28;20016;-77
2022/09/23 09:40:26;;;;;;;8.85;5.93;;;;;;;;;;5069856;28;20538;-75
2022/09/23 09:42:52;;;;;;;13.15;6.95;;;;;;;;;;5055236;28;20021;-77
2022/09/23 09:45:25;;;;;;;12.80;7.80;;;;;;;;;;5056783;28;20246;-76
2022/09/23 09:47:55;;;;;;;10.48;7.00;;;;;;;;;;5058060;28;20032;-75
2022/09/23 09:50:40;;;;;;;10.00;5.13;;;;;;;;;;5060127;28;20122;-75
2022/09/23 09:53:15;;;;;;;8.88;4.50;;;;;;;;;;5056011;28;20017;-75
2022/09/23 09:55:41;;;;;;;9.38;4.47;;;;;;;;;;5056577;28;20495;-75
2022/09/23 09:58:12;;;;;;;12.88;4.63;;;;;;;;;;5054738;28;20047;-75
2022/09/23 10:00:41;;;;;;;8.77;6.88;;;;;;;;;;5053999;28;20035;-75
2022/09/23 10:03:14;;;;;;;10.27;6.90;;;;;;;;;;5057686;28;20052;-75
2022/09/23 10:05:43;;;;;;;9.60;6.00;;;;;;;;;;5058065;28;20040;-76
2022/09/23 10:08:15;;;;;;;11.80;7.25;;;;;;;;;;5056828;28;20020;-77
2022/09/23 10:10:53;;;;;;;11.80;5.90;;;;;;;;;;5055399;28;20044;-75
2022/09/23 10:13:26;;;;;;;12.57;7.65;;;;;;;;;;5052722;28;20143;-75
2022/09/23 10:15:55;;;;;;;12.55;8.52;;;;;;;;;;5056064;28;20077;-75
2022/09/23 10:18:37;;;;;;;10.27;6.53;;;;;;;;;;5049895;28;20032;-76
2022/09/23 10:21:13;;;;;;;12.75;6.63;;;;;;;;;;5054959;28;20036;-75
2022/09/23 10:23:42;;;;;;;10.52;5.93;;;;;;;;;;5055472;28;20820;-75
2022/09/23 10:26:09;;;;;;;11.85;6.65;;;;;;;;;;5054190;28;20025;-75
2022/09/23 10:28:38;;;;;;;8.93;5.45;;;;;;;;;;5053284;28;20028;-74
2022/09/23 10:31:05;;;;;;;11.60;7.07;;;;;;;;;;5051140;28;20121;-74
2022/09/23 10:33:32;;;;;;;18.20;8.00;;;;;;;;;;5052914;28;20028;-76
2022/09/23 10:35:58;;;;;;;7.65;5.80;;;;;;;;;;5052981;28;20395;-74
2022/09/23 10:38:24;;;;;;;8.75;6.35;;;;;;;;;;5054667;28;20052;-76
2022/09/23 10:46:53;;;;;;;9.13;5.87;;;;;;;;;;5057298;28;20033;-74
2022/09/23 10:49:32;;;;;;;8.15;5.15;;;;;;;;;;5054310;28;20033;-74
2022/09/23 10:52:10;;;;;;;13.18;6.32;;;;;;;;;;5053554;28;20081;-74
2022/09/23 10:54:52;;;;;;;9.77;5.00;;;;;;;;;;5055353;28;20025;-74
2022/09/23 10:57:37;;;;;;;11.80;6.15;;;;;;;;;;5051576;28;20078;-74
2022/09/23 11:00:09;;;;;;;10.93;6.07;;;;;;;;;;5055413;28;20040;-75
2022/09/23 11:02:44;;;;;;;8.27;4.70;;;;;;;;;;5049572;28;20035;-75
2022/09/23 11:05:10;;;;;;;9.52;5.68;;;;;;;;;;5054413;28;20036;-75
2022/09/23 11:07:36;;;;;;;9.45;4.78;;;;;;;;;;5053919;28;20029;-75
2022/09/23 11:10:18;;;;;;;12.35;5.90;;;;;;;;;;5052508;28;20040;-75
2022/09/23 11:12:49;;;;;;;9.93;5.85;;;;;;;;;;5052925;28;20036;-74
2022/09/23 11:15:25;;;;;;;9.13;5.07;;;;;;;;;;5054181;28;20474;-74
2022/09/23 11:18:01;;;;;;;10.13;5.93;;;;;;;;;;5051000;28;20546;-75
2022/09/23 11:20:42;;;;;;;10.43;5.50;;;;;;;;;;5054741;28;20033;-75
2022/09/23 11:23:19;;;;;;;9.38;5.57;;;;;;;;;;5056711;28;20045;-74
2022/09/23 11:25:58;;;;;;;7.18;4.47;;;;;;;;;;5053848;28;20082;-75
2022/09/23 11:28:26;;;;;;;8.55;5.68;;;;;;;;;;5054134;28;20124;-74
2022/09/23 11:31:03;;;;;;;8.32;4.35;;;;;;;;;;5051881;28;20037;-75
2022/09/23 11:33:37;;;;;;;11.63;6.13;;;;;;;;;;5055356;28;20020;-75
2022/09/23 11:36:22;;;;;;;8.07;5.10;;;;;;;;;;5055101;28;20032;-74
2022/09/23 11:38:50;;;;;;;9.45;6.80;;;;;;;;;;5050731;28;20032;-75
2022/09/23 11:41:22;;;;;;;10.20;5.88;;;;;;;;;;5053293;28;20044;-75
2022/09/23 11:44:02;;;;;;;10.98;6.78;;;;;;;;;;5053487;28;20048;-76
2022/09/23 11:46:40;;;;;;;11.23;6.57;;;;;;;;;;5053450;28;20047;-75
2022/09/23 11:49:16;;;;;;;8.75;5.93;;;;;;;;;;5052339;28;20479;-75
2022/09/23 11:51:48;;;;;;;11.35;7.07;;;;;;;;;;5058356;28;20836;-75
2022/09/23 11:54:20;;;;;;;14.77;6.55;;;;;;;;;;5048299;28;20051;-75
2022/09/23 11:56:51;;;;;;;10.20;5.28;;;;;;;;;;5053863;28;20031;-75
2022/09/23 11:59:41;;;;;;;11.45;6.60;;;;;;;;;;5055339;28;20155;-75
2022/09/23 12:02:10;;;;;;;10.05;6.63;;;;;;;;;;5050418;28;20036;-74
2022/09/23 12:04:39;;;;;;;10.80;6.43;;;;;;;;;;5052738;28;20108;-74
2022/09/23 12:07:08;;;;;;;7.57;4.45;;;;;;;;;;5056454;28;20032;-76
2022/09/23 12:09:37;;;;;;;8.27;5.55;;;;;;;;;;5052267;28;20032;-75
2022/09/23 12:12:08;;;;;;;11.52;5.57;;;;;;;;;;5053729;28;20042;-74
2022/09/23 12:14:49;;;;;;;9.38;5.45;;;;;;;;;;5056272;28;20021;-75
2022/09/23 12:17:31;;;;;;;7.72;4.07;;;;;;;;;;5053031;28;20433;-75
2022/09/23 12:19:59;;;;;;;8.48;5.45;;;;;;;;;;5053438;28;20504;-75
2022/09/23 12:22:45;;;;;;;5.13;2.20;;;;;;;;;;5053446;28;20063;-74
2022/09/23 12:25:19;;;;;;;4.85;2.92;;;;;;;;;;5052908;28;20095;-74
2022/09/23 12:27:49;;;;;;;10.77;7.70;;;;;;;;;;5052023;28;20106;-74
2022/09/23 12:30:19;;;;;;;10.00;5.90;;;;;;;;;;5056162;28;20043;-74
2022/09/23 12:32:45;;;;;;;9.02;5.47;;;;;;;;;;5052549;28;20048;-74
2022/09/23 12:35:22;;;;;;;6.03;2.33;;;;;;;;;;5050803;28;20040;-75
2022/09/23 12:37:50;;;;;;;9.35;5.22;;;;;;;;;;5054954;28;20039;-75
2022/09/23 12:40:27;;;;;;;9.90;7.00;;;;;;;;;;5054635;28;20102;-74
2022/09/23 12:42:54;;;;;;;12.23;5.93;;;;;;;;;;5054532;28;20513;-75
2022/09/23 12:45:33;;;;;;;4.72;2.30;;;;;;;;;;5056035;28;20123;-75
2022/09/23 12:48:22;;;;;;;8.15;5.18;;;;;;;;;;5050612;28;20132;-75
2022/09/23 12:50:49;;;;;;;10.93;4.25;;;;;;;;;;5051619;28;20036;-75
2022/09/23 12:53:34;;;;;;;6.10;2.65;;;;;;;;;;5047958;28;20024;-74
2022/09/23 12:56:01;;;;;;;10.85;6.85;;;;;;;;;;5049810;28;20033;-75
2022/09/23 12:58:56;;;;;;;13.18;6.40;;;;;;;;;;5051108;28;20036;-74
2022/09/23 13:01:23;;;;;;;11.15;4.95;;;;;;;;;;5056193;28;20060;-75
2022/09/23 13:06:40;;;;;;;14.60;8.38;;;;;;;;;;5051829;28;20036;-74
2022/09/23 13:09:17;;;;;;;10.25;6.30;;;;;;;;;;5052153;28;20025;-74
2022/09/23 13:11:44;;;;;;;9.65;5.13;;;;;;;;;;5051726;28;20025;-74
2022/09/23 13:14:12;;;;;;;10.95;5.85;;;;;;;;;;5051295;28;20037;-75
2022/09/23 13:16:45;;;;;;;11.98;6.90;;;;;;;;;;5055057;28;20026;-75
2022/09/23 13:19:30;;;;;;;14.45;7.00;;;;;;;;;;5053642;28;20033;-74
2022/09/23 13:21:59;;;;;;;11.02;7.20;;;;;;;;;;5051130;28;20648;-75
2022/09/23 13:24:30;;;;;;;12.32;6.07;;;;;;;;;;5053023;28;20037;-75
2022/09/23 13:26:59;;;;;;;10.70;6.82;;;;;;;;;;5050300;28;20082;-74
2022/09/23 13:29:25;;;;;;;9.73;5.85;;;;;;;;;;5056454;28;20475;-75
2022/09/23 13:31:51;;;;;;;8.80;5.05;;;;;;;;;;5052962;28;20071;-74
2022/09/23 13:34:20;;;;;;;11.80;5.18;;;;;;;;;;5054002;28;20036;-74
2022/09/23 13:36:47;;;;;;;11.48;6.03;;;;;;;;;;5051723;28;20043;-75
2022/09/23 13:39:21;;;;;;;12.13;4.18;;;;;;;;;;5052378;28;20495;-75
2022/09/23 13:41:48;;;;;;;9.80;5.03;;;;;;;;;;5052635;28;20028;-75
2022/09/23 13:44:17;;;;;;;9.32;5.10;;;;;;;;;;5052948;28;20021;-75
2022/09/23 13:46:45;;;;;;;7.88;3.70;;;;;;;;;;5054754;28;20547;-74
2022/09/23 13:49:23;;;;;;;7.63;3.45;;;;;;;;;;5053632;28;20039;-75
2022/09/23 13:51:49;;;;;;;10.15;4.05;;;;;;;;;;5055481;28;20028;-75
2022/09/23 13:54:29;;;;;;;11.45;6.65;;;;;;;;;;5052554;28;20536;-76
2022/09/23 13:56:55;;;;;;;6.57;3.43;;;;;;;;;;5054154;28;20596;-77
2022/09/23 13:59:24;;;;;;;7.28;3.10;;;;;;;;;;5055967;28;20782;-75
2022/09/23 14:01:51;;;;;;;10.38;4.55;;;;;;;;;;5054617;28;20036;-74
2022/09/23 14:04:24;;;;;;;9.68;5.78;;;;;;;;;;5054409;28;20074;-75
2022/09/23 14:06:50;;;;;;;10.00;6.80;;;;;;;;;;5051939;28;20025;-74
2022/09/23 14:09:17;;;;;;;9.32;4.00;;;;;;;;;;5054971;28;20082;-75
2022/09/23 14:11:43;;;;;;;8.73;4.75;;;;;;;;;;5055062;28;20106;-76
2022/09/23 14:14:14;;;;;;;8.52;5.38;;;;;;;;;;5055933;28;20025;-76
2022/09/23 14:16:40;;;;;;;10.10;6.30;;;;;;;;;;5053464;28;20039;-76
2022/09/23 14:19:06;;;;;;;9.80;5.43;;;;;;;;;;5056312;28;20028;-75
2022/09/23 14:21:34;;;;;;;12.38;7.15;;;;;;;;;;5050792;28;20083;-75
2022/09/23 14:24:15;;;;;;;8.18;5.00;;;;;;;;;;5051965;28;20491;-75
2022/09/23 14:26:42;;;;;;;8.75;4.53;;;;;;;;;;5052705;28;23113;-75
2022/09/23 14:29:18;;;;;;;7.38;3.75;;;;;;;;;;5054903;28;20029;-75
2022/09/23 14:32:02;;;;;;;8.23;3.90;;;;;;;;;;5053170;28;20403;-74
2022/09/23 14:34:47;;;;;;;8.25;5.07;;;;;;;;;;5050715;28;20020;-73
2022/09/23 14:40:09;;;;;;;6.95;3.80;;;;;;;;;;5053226;28;20091;-74
2022/09/23 14:42:41;;;;;;;7.15;3.38;;;;;;;;;;5053175;28;20044;-73
2022/09/23 14:45:12;;;;;;;5.97;3.33;;;;;;;;;;5053081;28;20029;-75
2022/09/23 14:47:41;;;;;;;6.55;2.75;;;;;;;;;;5054488;28;20723;-73
2022/09/23 14:52:58;;;;;;;9.25;4.43;;;;;;;;;;5056070;28;20168;-74
2022/09/23 14:55:27;;;;;;;8.98;4.57;;;;;;;;;;5050433;28;20158;-75
2022/09/23 14:58:00;;;;;;;8.63;3.80;;;;;;;;;;5053924;28;20056;-74
2022/09/23 15:00:26;;;;;;;5.95;3.95;;;;;;;;;;5056026;28;20029;-74
2022/09/23 15:03:03;;;;;;;7.65;3.20;;;;;;;;;;5053128;28;20027;-73
2022/09/23 15:05:40;;;;;;;9.32;3.55;;;;;;;;;;5051836;28;20043;-75
2022/09/23 15:08:09;;;;;;;7.53;2.92;;;;;;;;;;5054314;28;20036;-73
2022/09/23 15:10:36;;;;;;;5.93;2.80;;;;;;;;;;5053001;28;20498;-76